sensor_id;sensor_type;location;lat;lon;timestamp;P1;durP1;ratioP1;P2;durP2;ratioP2
34557;SDS011;24708;48.888;8.736;2023-04-25T05:31:16;6.18;;;4.65;;
34557;SDS011;24708;48.888;8.736;2023-04-25T05:33:44;10.93;;;5.28;;
34557;SDS011;24708;48.888;8.736;2023-04-25T05:36:11;7.00;;;4.20;;
34557;SDS011;24708;48.888;8.736;2023-04-25T05:38:39;9.77;;;4.85;;
34557;SDS011;24708;48.888;8.736;2023-04-25T05:41:06;8.52;;;5.07;;
34557;SDS011;24708;48.888;8.736;2023-04-25T05:43:34;11.07;;;4.50;;
34557;SDS011;24708;48.888;8.736;2023-04-25T05:46:02;9.85;;;4.60;;
34557;SDS011;24708;48.888;8.736;2023-04-25T05:48:29;6.30;;;4.75;;
34557;SDS011;24708;48.888;8.736;2023-04-25T05:50:57;6.40;;;4.05;;
34557;SDS011;24708;48.888;8.736;2023-04-25T05:53:25;5.68;;;3.95;;
34557;SDS011;24708;48.888;8.736;2023-04-25T05:55:53;5.95;;;4.43;;
34557;SDS011;24708;48.888;8.736;2023-04-25T05:58:20;5.45;;;3.85;;
34557;SDS011;24708;48.888;8.736;2023-04-25T06:00:51;4.70;;;3.75;;
34557;SDS011;24708;48.888;8.736;2023-04-25T06:03:18;5.13;;;3.45;;
34557;SDS011;24708;48.888;8.736;2023-04-25T06:05:54;5.72;;;4.03;;
34557;SDS011;24708;48.888;8.736;2023-04-25T06:08:23;6.88;;;4.40;;
34557;SDS011;24708;48.888;8.736;2023-04-25T06:10:51;5.25;;;3.50;;
34557;SDS011;24708;48.888;8.736;2023-04-25T06:13:19;8.85;;;4.55;;
34557;SDS011;24708;48.888;8.736;2023-04-25T06:15:47;4.93;;;3.97;;
34557;SDS011;24708;48.888;8.736;2023-04-25T06:18:17;6.15;;;3.83;;
34557;SDS011;24708;48.888;8.736;2023-04-25T06:20:44;5.93;;;4.18;;
34557;SDS011;24708;48.888;8.736;2023-04-25T06:23:12;5.10;;;3.80;;
34557;SDS011;24708;48.888;8.736;2023-04-25T06:25:40;6.10;;;4.50;;
34557;SDS011;24708;48.888;8.736;2023-04-25T06:28:08;7.28;;;4.07;;
34557;SDS011;24708;48.888;8.736;2023-04-25T06:30:37;7.55;;;5.07;;
34557;SDS011;24708;48.888;8.736;2023-04-25T06:33:08;8.75;;;4.53;;
34557;SDS011;24708;48.888;8.736;2023-04-25T06:35:37;6.75;;;4.30;;
34557;SDS011;24708;48.888;8.736;2023-04-25T06:38:05;8.68;;;4.90;;
34557;SDS011;24708;48.888;8.736;2023-04-25T06:40:34;8.95;;;5.40;;
34557;SDS011;24708;48.888;8.736;2023-04-25T06:43:02;7.28;;;4.80;;
34557;SDS011;24708;48.888;8.736;2023-04-25T06:45:30;7.78;;;4.65;;
34557;SDS011;24708;48.888;8.736;2023-04-25T06:47:58;8.75;;;5.03;;
34557;SDS011;24708;48.888;8.736;2023-04-25T06:50:25;9.90;;;5.35;;
34557;SDS011;24708;48.888;8.736;2023-04-25T06:52:53;6.88;;;5.25;;
34557;SDS011;24708;48.888;8.736;2023-04-25T06:55:21;8.45;;;4.40;;
34557;SDS011;24708;48.888;8.736;2023-04-25T06:57:49;5.28;;;4.38;;
34557;SDS011;24708;48.888;8.736;2023-04-25T07:00:17;8.27;;;4.57;;
34557;SDS011;24708;48.888;8.736;2023-04-25T07:02:45;8.00;;;4.82;;
34557;SDS011;24708;48.888;8.736;2023-04-25T07:05:13;6.85;;;4.70;;
34557;SDS011;24708;48.888;8.736;2023-04-25T07:07:48;8.52;;;4.60;;
34557;SDS011;24708;48.888;8.736;2023-04-25T07:10:24;6.47;;;4.38;;
34557;SDS011;24708;48.888;8.736;2023-04-25T07:12:54;9.13;;;4.05;;
34557;SDS011;24708;48.888;8.736;2023-04-25T07:15:44;9.27;;;5.13;;
34557;SDS011;24708;48.888;8.736;2023-04-25T07:18:13;7.00;;;4.65;;
34557;SDS011;24708;48.888;8.736;2023-04-25T07:20:43;6.38;;;4.18;;
34557;SDS011;24708;48.888;8.736;2023-04-25T07:23:12;9.93;;;5.07;;
34557;SDS011;24708;48.888;8.736;2023-04-25T07:25:42;10.00;;;5.25;;
34557;SDS011;24708;48.888;8.736;2023-04-25T07:28:11;10.38;;;5.53;;
34557;SDS011;24708;48.888;8.736;2023-04-25T07:30:38;13.57;;;7.13;;
34557;SDS011;24708;48.888;8.736;2023-04-25T07:33:06;10.10;;;5.78;;
34557;SDS011;24708;48.888;8.736;2023-04-25T07:35:34;11.68;;;5.82;;
34557;SDS011;24708;48.888;8.736;2023-04-25T07:38:02;12.20;;;7.25;;
34557;SDS011;24708;48.888;8.736;2023-04-25T07:40:32;8.82;;;5.30;;
34557;SDS011;24708;48.888;8.736;2023-04-25T07:43:00;11.48;;;6.75;;
34557;SDS011;24708;48.888;8.736;2023-04-25T07:46:14;10.50;;;6.20;;
34557;SDS011;24708;48.888;8.736;2023-04-25T07:48:40;7.50;;;5.38;;
34557;SDS011;24708;48.888;8.736;2023-04-25T07:51:10;6.38;;;4.72;;
34557;SDS011;24708;48.888;8.736;2023-04-25T07:53:39;16.95;;;5.40;;
34557;SDS011;24708;48.888;8.736;2023-04-25T07:56:07;6.63;;;4.85;;
34557;SDS011;24708;48.888;8.736;2023-04-25T07:58:43;6.22;;;4.60;;
34557;SDS011;24708;48.888;8.736;2023-04-25T08:01:12;7.20;;;4.25;;
34557;SDS011;24708;48.888;8.736;2023-04-25T08:03:41;6.05;;;4.25;;
34557;SDS011;24708;48.888;8.736;2023-04-25T08:06:09;7.63;;;4.45;;
34557;SDS011;24708;48.888;8.736;2023-04-25T08:08:38;5.13;;;3.85;;
34557;SDS011;24708;48.888;8.736;2023-04-25T08:11:06;5.97;;;4.00;;
34557;SDS011;24708;48.888;8.736;2023-04-25T08:13:37;6.90;;;4.40;;
34557;SDS011;24708;48.888;8.736;2023-04-25T08:16:04;5.63;;;4.18;;
34557;SDS011;24708;48.888;8.736;2023-04-25T08:18:33;7.50;;;4.97;;
34557;SDS011;24708;48.888;8.736;2023-04-25T08:21:04;8.23;;;4.40;;
34557;SDS011;24708;48.888;8.736;2023-04-25T08:23:34;6.60;;;4.53;;
34557;SDS011;24708;48.888;8.736;2023-04-25T08:26:03;7.03;;;4.90;;
34557;SDS011;24708;48.888;8.736;2023-04-25T08:28:33;7.93;;;5.38;;
34557;SDS011;24708;48.888;8.736;2023-04-25T08:31:03;9.00;;;5.30;;
34557;SDS011;24708;48.888;8.736;2023-04-25T08:33:34;7.30;;;4.60;;
34557;SDS011;24708;48.888;8.736;2023-04-25T08:36:09;6.70;;;4.85;;
34557;SDS011;24708;48.888;8.736;2023-04-25T08:38:37;10.27;;;5.25;;
34557;SDS011;24708;48.888;8.736;2023-04-25T08:43:39;7.07;;;4.53;;
34557;SDS011;24708;48.888;8.736;2023-04-25T08:46:13;7.00;;;4.32;;
34557;SDS011;24708;48.888;8.736;2023-04-25T08:48:45;5.63;;;4.43;;
34557;SDS011;24708;48.888;8.736;2023-04-25T08:51:21;5.70;;;4.00;;
34557;SDS011;24708;48.888;8.736;2023-04-25T08:54:03;5.97;;;4.07;;
34557;SDS011;24708;48.888;8.736;2023-04-25T08:56:57;6.32;;;4.07;;
34557;SDS011;24708;48.888;8.736;2023-04-25T08:59:29;8.60;;;3.67;;
34557;SDS011;24708;48.888;8.736;2023-04-25T09:01:57;5.72;;;3.58;;
34557;SDS011;24708;48.888;8.736;2023-04-25T09:04:26;8.63;;;4.32;;
34557;SDS011;24708;48.888;8.736;2023-04-25T09:06:53;4.38;;;3.47;;
34557;SDS011;24708;48.888;8.736;2023-04-25T09:09:24;5.18;;;3.53;;
34557;SDS011;24708;48.888;8.736;2023-04-25T09:11:58;4.03;;;3.38;;
34557;SDS011;24708;48.888;8.736;2023-04-25T09:14:27;9.20;;;5.05;;
34557;SDS011;24708;48.888;8.736;2023-04-25T09:19:26;12.38;;;5.50;;
34557;SDS011;24708;48.888;8.736;2023-04-25T09:22:07;12.60;;;5.35;;
34557;SDS011;24708;48.888;8.736;2023-04-25T09:24:44;14.70;;;9.15;;
34557;SDS011;24708;48.888;8.736;2023-04-25T09:27:18;10.52;;;6.35;;
34557;SDS011;24708;48.888;8.736;2023-04-25T09:29:47;15.20;;;7.05;;
34557;SDS011;24708;48.888;8.736;2023-04-25T09:32:19;9.00;;;4.35;;
34557;SDS011;24708;48.888;8.736;2023-04-25T09:34:51;3.97;;;2.92;;
34557;SDS011;24708;48.888;8.736;2023-04-25T09:37:21;6.30;;;3.45;;
34557;SDS011;24708;48.888;8.736;2023-04-25T09:39:56;3.78;;;2.83;;
34557;SDS011;24708;48.888;8.736;2023-04-25T09:42:27;3.53;;;2.33;;
34557;SDS011;24708;48.888;8.736;2023-04-25T09:44:55;3.55;;;2.78;;
34557;SDS011;24708;48.888;8.736;2023-04-25T09:47:24;2.90;;;2.40;;
34557;SDS011;24708;48.888;8.736;2023-04-25T09:49:57;2.53;;;2.10;;
34557;SDS011;24708;48.888;8.736;2023-04-25T09:52:26;2.25;;;1.60;;
34557;SDS011;24708;48.888;8.736;2023-04-25T09:54:54;6.63;;;2.30;;
34557;SDS011;24708;48.888;8.736;2023-04-25T09:57:23;2.95;;;2.00;;
34557;SDS011;24708;48.888;8.736;2023-04-25T09:59:53;2.63;;;2.13;;
34557;SDS011;24708;48.888;8.736;2023-04-25T10:02:24;3.05;;;2.20;;
34557;SDS011;24708;48.888;8.736;2023-04-25T10:04:54;1.88;;;1.70;;
34557;SDS011;24708;48.888;8.736;2023-04-25T10:07:25;2.88;;;2.40;;
34557;SDS011;24708;48.888;8.736;2023-04-25T10:12:31;4.40;;;2.97;;
34557;SDS011;24708;48.888;8.736;2023-04-25T10:15:01;4.13;;;2.78;;
34557;SDS011;24708;48.888;8.736;2023-04-25T10:17:30;3.97;;;3.17;;
34557;SDS011;24708;48.888;8.736;2023-04-25T10:19:59;5.65;;;3.75;;
34557;SDS011;24708;48.888;8.736;2023-04-25T10:22:38;8.73;;;4.68;;
34557;SDS011;24708;48.888;8.736;2023-04-25T10:25:09;5.93;;;4.65;;
34557;SDS011;24708;48.888;8.736;2023-04-25T10:27:38;6.43;;;4.75;;
34557;SDS011;24708;48.888;8.736;2023-04-25T10:30:07;5.75;;;4.82;;
34557;SDS011;24708;48.888;8.736;2023-04-25T10:32:41;6.57;;;4.68;;
34557;SDS011;24708;48.888;8.736;2023-04-25T10:35:19;6.57;;;4.90;;
34557;SDS011;24708;48.888;8.736;2023-04-25T10:38:00;9.43;;;5.80;;
34557;SDS011;24708;48.888;8.736;2023-04-25T10:40:33;10.05;;;6.30;;
34557;SDS011;24708;48.888;8.736;2023-04-25T10:46:26;9.20;;;5.82;;
34557;SDS011;24708;48.888;8.736;2023-04-25T10:48:59;10.35;;;6.40;;
34557;SDS011;24708;48.888;8.736;2023-04-25T10:51:28;8.70;;;4.95;;
34557;SDS011;24708;48.888;8.736;2023-04-25T10:54:18;7.07;;;4.40;;
34557;SDS011;24708;48.888;8.736;2023-04-25T10:56:48;10.23;;;5.97;;
34557;SDS011;24708;48.888;8.736;2023-04-25T10:59:17;10.13;;;6.20;;
34557;SDS011;24708;48.888;8.736;2023-04-25T11:01:46;9.93;;;6.18;;
34557;SDS011;24708;48.888;8.736;2023-04-25T11:09:34;20.17;;;10.82;;
34557;SDS011;24708;48.888;8.736;2023-04-25T11:12:04;19.25;;;8.50;;
34557;SDS011;24708;48.888;8.736;2023-04-25T11:14:35;14.43;;;8.27;;
34557;SDS011;24708;48.888;8.736;2023-04-25T11:17:03;11.88;;;6.25;;
34557;SDS011;24708;48.888;8.736;2023-04-25T11:19:30;13.10;;;6.03;;
34557;SDS011;24708;48.888;8.736;2023-04-25T11:21:59;14.77;;;7.43;;
34557;SDS011;24708;48.888;8.736;2023-04-25T11:24:31;12.43;;;6.22;;
34557;SDS011;24708;48.888;8.736;2023-04-25T11:27:03;10.30;;;5.75;;
34557;SDS011;24708;48.888;8.736;2023-04-25T11:29:33;11.18;;;5.40;;
34557;SDS011;24708;48.888;8.736;2023-04-25T11:32:01;9.82;;;5.55;;
34557;SDS011;24708;48.888;8.736;2023-04-25T11:34:30;7.13;;;5.20;;
34557;SDS011;24708;48.888;8.736;2023-04-25T11:37:00;10.63;;;7.15;;
34557;SDS011;24708;48.888;8.736;2023-04-25T11:39:29;15.15;;;7.40;;
34557;SDS011;24708;48.888;8.736;2023-04-25T11:41:56;14.10;;;6.68;;
34557;SDS011;24708;48.888;8.736;2023-04-25T11:44:26;9.90;;;6.03;;
34557;SDS011;24708;48.888;8.736;2023-04-25T11:46:53;7.18;;;4.05;;
34557;SDS011;24708;48.888;8.736;2023-04-25T11:49:22;5.85;;;3.97;;
34557;SDS011;24708;48.888;8.736;2023-04-25T11:51:51;7.60;;;4.20;;
34557;SDS011;24708;48.888;8.736;2023-04-25T11:54:22;4.80;;;3.42;;
34557;SDS011;24708;48.888;8.736;2023-04-25T11:56:50;6.88;;;3.58;;
34557;SDS011;24708;48.888;8.736;2023-04-25T11:59:22;5.50;;;2.88;;
34557;SDS011;24708;48.888;8.736;2023-04-25T12:01:52;3.40;;;2.65;;
34557;SDS011;24708;48.888;8.736;2023-04-25T12:04:21;3.45;;;2.13;;
34557;SDS011;24708;48.888;8.736;2023-04-25T12:06:52;1.58;;;1.40;;
34557;SDS011;24708;48.888;8.736;2023-04-25T12:09:32;2.45;;;1.88;;
34557;SDS011;24708;48.888;8.736;2023-04-25T12:12:00;3.63;;;2.00;;
34557;SDS011;24708;48.888;8.736;2023-04-25T12:14:31;2.67;;;1.83;;
34557;SDS011;24708;48.888;8.736;2023-04-25T12:17:00;3.42;;;2.00;;
34557;SDS011;24708;48.888;8.736;2023-04-25T12:19:36;3.22;;;2.53;;
34557;SDS011;24708;48.888;8.736;2023-04-25T12:22:23;5.03;;;3.00;;
34557;SDS011;24708;48.888;8.736;2023-04-25T12:24:51;3.10;;;2.75;;
34557;SDS011;24708;48.888;8.736;2023-04-25T12:27:21;10.88;;;4.07;;
34557;SDS011;24708;48.888;8.736;2023-04-25T12:29:54;8.05;;;4.10;;
34557;SDS011;24708;48.888;8.736;2023-04-25T12:32:23;4.72;;;3.60;;
34557;SDS011;24708;48.888;8.736;2023-04-25T12:34:51;6.50;;;4.55;;
34557;SDS011;24708;48.888;8.736;2023-04-25T12:37:18;5.93;;;3.83;;
34557;SDS011;24708;48.888;8.736;2023-04-25T12:39:45;9.98;;;4.32;;
34557;SDS011;24708;48.888;8.736;2023-04-25T12:42:13;6.57;;;4.10;;
34557;SDS011;24708;48.888;8.736;2023-04-25T12:44:40;8.15;;;4.55;;
34557;SDS011;24708;48.888;8.736;2023-04-25T12:47:08;8.48;;;4.63;;
34557;SDS011;24708;48.888;8.736;2023-04-25T12:49:36;8.82;;;4.78;;
34557;SDS011;24708;48.888;8.736;2023-04-25T12:52:04;8.07;;;5.13;;
34557;SDS011;24708;48.888;8.736;2023-04-25T12:54:31;8.35;;;5.88;;
34557;SDS011;24708;48.888;8.736;2023-04-25T12:56:59;12.73;;;5.72;;
34557;SDS011;24708;48.888;8.736;2023-04-25T12:59:28;8.52;;;4.70;;
34557;SDS011;24708;48.888;8.736;2023-04-25T13:01:55;6.25;;;4.70;;
34557;SDS011;24708;48.888;8.736;2023-04-25T13:04:23;7.90;;;5.28;;
34557;SDS011;24708;48.888;8.736;2023-04-25T13:06:50;7.78;;;4.97;;
34557;SDS011;24708;48.888;8.736;2023-04-25T13:09:18;11.05;;;6.03;;
34557;SDS011;24708;48.888;8.736;2023-04-25T13:11:47;12.27;;;6.18;;
34557;SDS011;24708;48.888;8.736;2023-04-25T13:14:14;11.10;;;6.30;;
34557;SDS011;24708;48.888;8.736;2023-04-25T13:16:42;9.77;;;5.63;;
34557;SDS011;24708;48.888;8.736;2023-04-25T13:19:09;7.75;;;4.90;;
34557;SDS011;24708;48.888;8.736;2023-04-25T13:21:39;6.45;;;4.03;;
34557;SDS011;24708;48.888;8.736;2023-04-25T13:24:06;11.50;;;5.40;;
34557;SDS011;24708;48.888;8.736;2023-04-25T13:26:34;10.65;;;4.88;;
34557;SDS011;24708;48.888;8.736;2023-04-25T13:29:02;9.10;;;4.72;;
34557;SDS011;24708;48.888;8.736;2023-04-25T13:31:30;10.40;;;4.68;;
34557;SDS011;24708;48.888;8.736;2023-04-25T13:33:58;7.78;;;4.22;;
34557;SDS011;24708;48.888;8.736;2023-04-25T13:36:26;9.63;;;5.15;;
34557;SDS011;24708;48.888;8.736;2023-04-25T13:38:54;5.80;;;3.63;;
34557;SDS011;24708;48.888;8.736;2023-04-25T13:41:22;11.63;;;4.07;;
34557;SDS011;24708;48.888;8.736;2023-04-25T13:43:50;5.68;;;3.58;;
34557;SDS011;24708;48.888;8.736;2023-04-25T13:46:19;10.25;;;4.05;;
34557;SDS011;24708;48.888;8.736;2023-04-25T13:49:06;5.25;;;3.88;;
34557;SDS011;24708;48.888;8.736;2023-04-25T13:51:39;6.85;;;3.72;;
34557;SDS011;24708;48.888;8.736;2023-04-25T13:54:08;6.32;;;3.85;;
34557;SDS011;24708;48.888;8.736;2023-04-25T13:56:36;6.43;;;3.22;;
34557;SDS011;24708;48.888;8.736;2023-04-25T13:59:03;6.80;;;3.45;;
34557;SDS011;24708;48.888;8.736;2023-04-25T14:01:31;6.72;;;3.40;;
34557;SDS011;24708;48.888;8.736;2023-04-25T14:04:01;8.90;;;3.80;;
34557;SDS011;24708;48.888;8.736;2023-04-25T14:06:31;5.35;;;3.95;;
34557;SDS011;24708;48.888;8.736;2023-04-25T14:08:58;9.30;;;3.88;;
34557;SDS011;24708;48.888;8.736;2023-04-25T14:11:27;4.15;;;3.08;;
34557;SDS011;24708;48.888;8.736;2023-04-25T14:13:55;5.20;;;3.80;;
34557;SDS011;24708;48.888;8.736;2023-04-25T14:16:22;5.55;;;3.38;;
34557;SDS011;24708;48.888;8.736;2023-04-25T14:18:50;4.65;;;3.38;;
34557;SDS011;24708;48.888;8.736;2023-04-25T14:21:18;6.45;;;3.50;;
34557;SDS011;24708;48.888;8.736;2023-04-25T14:23:45;5.05;;;3.05;;
34557;SDS011;24708;48.888;8.736;2023-04-25T14:26:13;10.48;;;3.75;;
34557;SDS011;24708;48.888;8.736;2023-04-25T14:28:41;10.32;;;4.10;;
34557;SDS011;24708;48.888;8.736;2023-04-25T14:31:08;7.28;;;3.50;;
34557;SDS011;24708;48.888;8.736;2023-04-25T14:33:36;8.68;;;4.53;;
34557;SDS011;24708;48.888;8.736;2023-04-25T14:36:06;5.55;;;3.13;;
34557;SDS011;24708;48.888;8.736;2023-04-25T14:38:33;4.45;;;2.67;;
34557;SDS011;24708;48.888;8.736;2023-04-25T14:41:01;6.15;;;3.13;;
34557;SDS011;24708;48.888;8.736;2023-04-25T14:43:28;4.30;;;2.30;;
34557;SDS011;24708;48.888;8.736;2023-04-25T14:45:55;15.18;;;4.40;;
34557;SDS011;24708;48.888;8.736;2023-04-25T14:48:24;7.65;;;4.25;;
34557;SDS011;24708;48.888;8.736;2023-04-25T14:50:51;5.28;;;3.58;;
34557;SDS011;24708;48.888;8.736;2023-04-25T14:53:19;4.85;;;3.03;;
34557;SDS011;24708;48.888;8.736;2023-04-25T14:55:47;6.15;;;4.05;;
34557;SDS011;24708;48.888;8.736;2023-04-25T14:58:15;9.98;;;3.83;;
34557;SDS011;24708;48.888;8.736;2023-04-25T15:00:42;6.70;;;4.05;;
34557;SDS011;24708;48.888;8.736;2023-04-25T15:03:10;8.18;;;5.03;;
34557;SDS011;24708;48.888;8.736;2023-04-25T15:05:39;9.80;;;4.55;;
34557;SDS011;24708;48.888;8.736;2023-04-25T15:08:07;6.63;;;4.63;;
34557;SDS011;24708;48.888;8.736;2023-04-25T15:10:35;7.20;;;4.38;;
34557;SDS011;24708;48.888;8.736;2023-04-25T15:13:02;9.30;;;5.20;;
34557;SDS011;24708;48.888;8.736;2023-04-25T15:15:30;7.03;;;4.28;;
34557;SDS011;24708;48.888;8.736;2023-04-25T15:17:57;6.68;;;4.78;;
34557;SDS011;24708;48.888;8.736;2023-04-25T15:20:25;7.65;;;4.57;;
34557;SDS011;24708;48.888;8.736;2023-04-25T15:22:54;10.55;;;4.53;;
34557;SDS011;24708;48.888;8.736;2023-04-25T15:25:21;8.98;;;5.35;;
34557;SDS011;24708;48.888;8.736;2023-04-25T15:27:49;10.32;;;5.50;;
34557;SDS011;24708;48.888;8.736;2023-04-25T15:30:18;13.68;;;4.85;;
34557;SDS011;24708;48.888;8.736;2023-04-25T15:32:46;8.07;;;4.55;;
34557;SDS011;24708;48.888;8.736;2023-04-25T15:35:14;6.03;;;3.97;;
34557;SDS011;24708;48.888;8.736;2023-04-25T15:37:42;5.05;;;4.05;;
34557;SDS011;24708;48.888;8.736;2023-04-25T15:40:10;6.45;;;4.60;;
34557;SDS011;24708;48.888;8.736;2023-04-25T15:42:41;6.10;;;4.15;;
34557;SDS011;24708;48.888;8.736;2023-04-25T15:45:09;5.45;;;3.78;;
34557;SDS011;24708;48.888;8.736;2023-04-25T15:47:37;8.30;;;5.20;;
34557;SDS011;24708;48.888;8.736;2023-04-25T15:50:06;7.03;;;4.65;;
34557;SDS011;24708;48.888;8.736;2023-04-25T15:52:35;4.78;;;4.03;;
34557;SDS011;24708;48.888;8.736;2023-04-25T15:55:03;7.53;;;4.68;;
34557;SDS011;24708;48.888;8.736;2023-04-25T15:57:32;8.77;;;4.40;;
34557;SDS011;24708;48.888;8.736;2023-04-25T16:00:01;9.75;;;6.05;;
